Ana Sayfa
METAR-TAF:

METAR-TAF

Havaalanları :

Höfn, İzlanda

Enlem: 64-18N, Boylam: 015-13W, yükseklik: 17 m

METAR: eksik

Saat: 03:12 (03:12 UTC)

Tahmin

Rapor saat 16:12 UTC de 11 saat ve 0 dakika önce yapıldı.
Ayın 17'si saat 17 UTC'den ayın 18'si saat 02 UTC'ye kadar geçerli Tahmin
Rüzgar kuzeydan 25 kt ve 35 kt'a kadar ani rüzgarlar
Görüş mesafesi 10 km veya daha fazla
4000 ft yükseklikte az bulutlu

TAF: BIHN 171612Z 1717/1802 01025G35KT 9999 FEW040

4.000'den fazla havaalanı için hava durumu gözlemleri ve tahminleri (METAR ve TAF raporları).

Kullanılabilir istasyonlar harita üzerinde sarı ve kırmızı noktalarla gösterilir.

İstasyonun adını görmek için fareyi noktanın üzerinde gezdirin.

Sonrasında hava gözlem ve tahminlerini görmek için tıklayın.

Haritayı değiştirmek için: yaklaştırmak için siyah artı işaretli yeşil düğmeye ve uzaklaştırmak için de eksi işaretli düğmeye hızla tıklayın; bitişik haritalar için yeşil okları kullanın.


METAR-TAF: